Terminal Aerodrome Forecast
Issued by NWS

Home | Current Version | Previous Version | Graphics & Text | Print | Product List | Glossary On
Versions: 1 2 3 4 5 6 7 8 9 10 11 12 13 14 15
000
FTUS43 KICT 301500 AAA
TAFRSL
TAF AMD
KRSL 301513Z 3015/3112 07012KT P6SM -RA SCT025 OVC040
      TEMPO 3017/3019 -SHRA BKN025
     FM302000 06008KT P6SM BKN050
     FM310200 VRB05KT P6SM BKN200=

USA.gov is the U.S. government's official web portal to all federal, state and local government web resources and services.